Napa, CA

8:18 PM PST on February 07, 2016 (GMT -0800)
Castle Rock | | Change Station
CLOSE
Current Station
Personal Weather Station
Location: Fairfield, CA
Elevation: 115 ft
Nearby Weather Stations

Elev 115 ft 38.27 °N, 122.06 °W | Updated 5 minutes ago

Clear
Clear
55.2 °F
Feels Like 55.2 °F
N
0.0
Wind Variable Wind from SW

Today
High -- | Low -- °F
--% Chance of Precip.
Yesterday
High -- | Low -- °F
Precip. -- in
Pressure 30.22 in
Visibility 10.0 miles
Clouds Clear
Dew Point 46 °F
Humidity 72%
Rainfall 0.00 in
Snow Depth Not available.
7:08 AM 5:37 PM
Waning Crescent, 0% visible
METAR KSUU 080358Z AUTO 05003KT 10SM CLR 10/09 A3020 RMK AO2 SLP234 T01030089 $
Pressure 30.22 in
Visibility 10.0 miles
Clouds Clear
Dew Point 46 °F
Humidity 72%
Rainfall 0.00 in
Snow Depth Not available.
7:08 AM 5:37 PM
Waning Crescent, 0% visible
METAR KSUU 080358Z AUTO 05003KT 10SM CLR 10/09 A3020 RMK AO2 SLP234 T01030089 $

10-Day Weather Forecast

Almanac

Astronomy

Feb. 07, 2016 Rise Set
Actual Time
Civil Twilight
Nautical Twilight
Astronomical Twilight
Moon
Length of Visible Light
Length of Day
Tomorrow will be .
, % of the Moon is Illuminated

Today's Extremes

State Highs State Lows

Community

WunderPhotos

Upload Photos

1,891,379 photos uploaded!

WunderBlog® & News

Nearby

Air Quality

  Air Quality AQ Index Pollutant
Not available.

Snow Depth

Station Depth Elevation

Earthquake Activity

City Distance Mag. Time & Date
Minimum magnitude displayed is 2.5.

Coastal Water Temperatures

Place Temperature

Stations

Nearby Weather Stations

Station Location Temp. Windchill Dew Point Humidity Wind Precip. Elev Updated Type
                   

Watches & Warnings

There are currently no watches in effect.